N55JG KCPK-KFFA
Flight info
| Callsign | N55JG |
|---|---|
| Flight time | 0h 34m |
| Altitude | 4500 |
| Route | YELUS |
| Aircraft | C172/L-SDFGRY/LB1 |
Departure
| Time | 2026-05-06 14:33 |
|---|---|
| Airport | Chesapeake Regional Airport (KCPK) |
Arrival
| Time | 2026-05-06 15:08 |
|---|---|
| Airport | First Flight Airport (KFFA) |
| Time | Latitude | Longitude | Altitude | Speed | Heading |
|---|---|---|---|---|---|
| 2026-05-06 14:27 | 36.66555 | -76.32383 | 24 ft | 0 kts | 313° |
| 2026-05-06 14:28 | 36.66581 | -76.32389 | 24 ft | 7 kts | 25° |
| 2026-05-06 14:28 | 36.66607 | -76.32322 | 24 ft | 9 kts | 84° |
| 2026-05-06 14:29 | 36.66584 | -76.32232 | 24 ft | 11 kts | 87° |
| 2026-05-06 14:29 | 36.66632 | -76.32172 | 24 ft | 10 kts | 38° |
| 2026-05-06 14:29 | 36.66703 | -76.32106 | 24 ft | 16 kts | 36° |
| 2026-05-06 14:29 | 36.66799 | -76.32014 | 25 ft | 17 kts | 37° |
| 2026-05-06 14:30 | 36.66892 | -76.31930 | 25 ft | 16 kts | 39° |
| 2026-05-06 14:30 | 36.66980 | -76.31849 | 25 ft | 15 kts | 38° |
| 2026-05-06 14:30 | 36.67061 | -76.31774 | 25 ft | 14 kts | 36° |
| 2026-05-06 14:30 | 36.67134 | -76.31707 | 25 ft | 12 kts | 38° |
| 2026-05-06 14:31 | 36.67206 | -76.31639 | 25 ft | 10 kts | 40° |
| 2026-05-06 14:31 | 36.67214 | -76.31584 | 25 ft | 0 kts | 124° |
| 2026-05-06 14:32 | 36.67208 | -76.31576 | 25 ft | 5 kts | 137° |
| 2026-05-06 14:32 | 36.67148 | -76.31540 | 26 ft | 14 kts | 185° |
| 2026-05-06 14:32 | 36.67017 | -76.31646 | 27 ft | 44 kts | 217° |
| 2026-05-06 14:33 | 36.66672 | -76.31966 | 99 ft | 71 kts | 216° |
| 2026-05-06 14:33 | 36.66278 | -76.32353 | 329 ft | 73 kts | 222° |
| 2026-05-06 14:33 | 36.65941 | -76.32771 | 667 ft | 62 kts | 223° |
| 2026-05-06 14:33 | 36.65587 | -76.32987 | 922 ft | 60 kts | 191° |
| 2026-05-06 14:34 | 36.65136 | -76.32986 | 1074 ft | 69 kts | 187° |
| 2026-05-06 14:34 | 36.64667 | -76.32964 | 1407 ft | 65 kts | 186° |
| 2026-05-06 14:34 | 36.64254 | -76.32905 | 1764 ft | 57 kts | 181° |
| 2026-05-06 14:34 | 36.63886 | -76.32659 | 1982 ft | 66 kts | 171° |
| 2026-05-06 14:35 | 36.63515 | -76.32335 | 2199 ft | 66 kts | 169° |
| 2026-05-06 14:35 | 36.63180 | -76.31864 | 2377 ft | 79 kts | 146° |
| 2026-05-06 14:35 | 36.62923 | -76.31188 | 2466 ft | 99 kts | 124° |
| 2026-05-06 14:35 | 36.62762 | -76.30311 | 2616 ft | 104 kts | 117° |
| 2026-05-06 14:36 | 36.62728 | -76.29390 | 2822 ft | 108 kts | 103° |
| 2026-05-06 14:36 | 36.62743 | -76.28487 | 3038 ft | 104 kts | 108° |
| 2026-05-06 14:36 | 36.62693 | -76.27609 | 3226 ft | 100 kts | 119° |
| 2026-05-06 14:36 | 36.62517 | -76.26778 | 3364 ft | 100 kts | 131° |
| 2026-05-06 14:37 | 36.62190 | -76.26049 | 3529 ft | 93 kts | 148° |
| 2026-05-06 14:37 | 36.61785 | -76.25486 | 3749 ft | 78 kts | 164° |
| 2026-05-06 14:37 | 36.61355 | -76.25096 | 3902 ft | 79 kts | 168° |
| 2026-05-06 14:37 | 36.60901 | -76.24674 | 4047 ft | 85 kts | 165° |
| 2026-05-06 14:38 | 36.60420 | -76.24211 | 4218 ft | 87 kts | 162° |
| 2026-05-06 14:38 | 36.59960 | -76.23727 | 4399 ft | 88 kts | 159° |
| 2026-05-06 14:38 | 36.59494 | -76.23187 | 4487 ft | 99 kts | 154° |
| 2026-05-06 14:38 | 36.58949 | -76.22585 | 4481 ft | 107 kts | 156° |
| 2026-05-06 14:39 | 36.58362 | -76.21971 | 4502 ft | 110 kts | 157° |
| 2026-05-06 14:39 | 36.57806 | -76.21336 | 4514 ft | 116 kts | 143° |
| 2026-05-06 14:39 | 36.57258 | -76.20600 | 4409 ft | 113 kts | 162° |
| 2026-05-06 14:39 | 36.56602 | -76.20031 | 4333 ft | 114 kts | 160° |
| 2026-05-06 14:40 | 36.55958 | -76.19450 | 4347 ft | 115 kts | 158° |
| 2026-05-06 14:40 | 36.55320 | -76.18824 | 4363 ft | 117 kts | 156° |
| 2026-05-06 14:40 | 36.54692 | -76.18179 | 4376 ft | 118 kts | 155° |
| 2026-05-06 14:40 | 36.54064 | -76.17519 | 4394 ft | 120 kts | 155° |
| 2026-05-06 14:41 | 36.53428 | -76.16846 | 4424 ft | 120 kts | 155° |
| 2026-05-06 14:41 | 36.52791 | -76.16170 | 4421 ft | 120 kts | 154° |
| 2026-05-06 14:41 | 36.52154 | -76.15492 | 4431 ft | 120 kts | 154° |
| 2026-05-06 14:41 | 36.51527 | -76.14823 | 4437 ft | 120 kts | 155° |
| 2026-05-06 14:42 | 36.50894 | -76.14150 | 4440 ft | 120 kts | 150° |
| 2026-05-06 14:42 | 36.50260 | -76.13473 | 4457 ft | 120 kts | 152° |
| 2026-05-06 14:42 | 36.49623 | -76.12798 | 4468 ft | 120 kts | 152° |
| 2026-05-06 14:42 | 36.48994 | -76.12129 | 4454 ft | 120 kts | 152° |
| 2026-05-06 14:43 | 36.48354 | -76.11449 | 4439 ft | 120 kts | 152° |
| 2026-05-06 14:43 | 36.47718 | -76.10772 | 4433 ft | 120 kts | 152° |
| 2026-05-06 14:43 | 36.47297 | -76.10325 | 4436 ft | 120 kts | 152° |
| 2026-05-06 14:43 | 36.46456 | -76.09430 | 4441 ft | 118 kts | 152° |
| 2026-05-06 14:44 | 36.46049 | -76.08995 | 4472 ft | 115 kts | 153° |
| 2026-05-06 14:44 | 36.45460 | -76.08367 | 4521 ft | 108 kts | 153° |
| 2026-05-06 14:44 | 36.44710 | -76.07534 | 4501 ft | 110 kts | 149° |
| 2026-05-06 14:45 | 36.43813 | -76.06430 | 4490 ft | 108 kts | 155° |
| 2026-05-06 14:45 | 36.43217 | -76.05887 | 4504 ft | 106 kts | 156° |
| 2026-05-06 14:45 | 36.42631 | -76.05319 | 4501 ft | 107 kts | 155° |
| 2026-05-06 14:45 | 36.42055 | -76.04733 | 4503 ft | 106 kts | 155° |
| 2026-05-06 14:46 | 36.41485 | -76.04140 | 4510 ft | 106 kts | 154° |
| 2026-05-06 14:46 | 36.40918 | -76.03545 | 4492 ft | 107 kts | 152° |
| 2026-05-06 14:46 | 36.40349 | -76.02946 | 4509 ft | 108 kts | 151° |
| 2026-05-06 14:46 | 36.39773 | -76.02339 | 4513 ft | 111 kts | 150° |
| 2026-05-06 14:47 | 36.39181 | -76.01712 | 4518 ft | 112 kts | 150° |
| 2026-05-06 14:47 | 36.38586 | -76.01082 | 4516 ft | 113 kts | 151° |
| 2026-05-06 14:47 | 36.37990 | -76.00450 | 4515 ft | 112 kts | 150° |
| 2026-05-06 14:47 | 36.37399 | -75.99822 | 4516 ft | 112 kts | 151° |
| 2026-05-06 14:48 | 36.36804 | -75.99193 | 4516 ft | 112 kts | 151° |
| 2026-05-06 14:48 | 36.36218 | -75.98572 | 4514 ft | 112 kts | 151° |
| 2026-05-06 14:48 | 36.35625 | -75.97944 | 4509 ft | 111 kts | 152° |
| 2026-05-06 14:48 | 36.35036 | -75.97320 | 4508 ft | 111 kts | 152° |
| 2026-05-06 14:49 | 36.34446 | -75.96696 | 4511 ft | 112 kts | 151° |
| 2026-05-06 14:49 | 36.33852 | -75.96069 | 4512 ft | 112 kts | 151° |
| 2026-05-06 14:49 | 36.33266 | -75.95448 | 4511 ft | 112 kts | 151° |
| 2026-05-06 14:49 | 36.32675 | -75.94823 | 4511 ft | 111 kts | 151° |
| 2026-05-06 14:50 | 36.32084 | -75.94197 | 4513 ft | 112 kts | 150° |
| 2026-05-06 14:50 | 36.31494 | -75.93576 | 4515 ft | 113 kts | 150° |
| 2026-05-06 14:50 | 36.30891 | -75.92938 | 4518 ft | 115 kts | 151° |
| 2026-05-06 14:50 | 36.30274 | -75.92288 | 4514 ft | 115 kts | 150° |
| 2026-05-06 14:51 | 36.29681 | -75.91658 | 4511 ft | 112 kts | 152° |
| 2026-05-06 14:51 | 36.29089 | -75.91032 | 4512 ft | 111 kts | 152° |
| 2026-05-06 14:51 | 36.28500 | -75.90411 | 4508 ft | 111 kts | 152° |
| 2026-05-06 14:51 | 36.27913 | -75.89791 | 4510 ft | 110 kts | 152° |
| 2026-05-06 14:52 | 36.27329 | -75.89174 | 4508 ft | 110 kts | 152° |
| 2026-05-06 14:52 | 36.26747 | -75.88559 | 4520 ft | 111 kts | 152° |
| 2026-05-06 14:52 | 36.26140 | -75.87927 | 4515 ft | 115 kts | 152° |
| 2026-05-06 14:52 | 36.25545 | -75.87294 | 4515 ft | 114 kts | 151° |
| 2026-05-06 14:53 | 36.24942 | -75.86657 | 4514 ft | 114 kts | 151° |
| 2026-05-06 14:53 | 36.24340 | -75.86022 | 4513 ft | 112 kts | 151° |
| 2026-05-06 14:53 | 36.23751 | -75.85399 | 4508 ft | 110 kts | 152° |
| 2026-05-06 14:53 | 36.23172 | -75.84789 | 4507 ft | 108 kts | 152° |
| 2026-05-06 14:54 | 36.22610 | -75.84197 | 4510 ft | 107 kts | 151° |
| 2026-05-06 14:54 | 36.22045 | -75.83602 | 4511 ft | 106 kts | 151° |
| 2026-05-06 14:54 | 36.21477 | -75.83004 | 4515 ft | 107 kts | 152° |
| 2026-05-06 14:54 | 36.20906 | -75.82404 | 4519 ft | 108 kts | 152° |
| 2026-05-06 14:55 | 36.20339 | -75.81808 | 4526 ft | 108 kts | 152° |
| 2026-05-06 14:55 | 36.19749 | -75.81232 | 4520 ft | 106 kts | 160° |
| 2026-05-06 14:55 | 36.19124 | -75.80735 | 4523 ft | 107 kts | 159° |
| 2026-05-06 14:55 | 36.18495 | -75.80227 | 4529 ft | 108 kts | 159° |
| 2026-05-06 14:56 | 36.17878 | -75.79728 | 4523 ft | 107 kts | 159° |
| 2026-05-06 14:56 | 36.17258 | -75.79225 | 4518 ft | 106 kts | 159° |
| 2026-05-06 14:56 | 36.16640 | -75.78725 | 4520 ft | 105 kts | 158° |
| 2026-05-06 14:56 | 36.16034 | -75.78236 | 4525 ft | 105 kts | 159° |
| 2026-05-06 14:57 | 36.15422 | -75.77739 | 4522 ft | 104 kts | 160° |
| 2026-05-06 14:57 | 36.14818 | -75.77251 | 4523 ft | 103 kts | 159° |
| 2026-05-06 14:57 | 36.14225 | -75.76773 | 4524 ft | 103 kts | 160° |
| 2026-05-06 14:57 | 36.13624 | -75.76345 | 4417 ft | 96 kts | 167° |
| 2026-05-06 14:58 | 36.13029 | -75.75960 | 4196 ft | 99 kts | 165° |
| 2026-05-06 14:58 | 36.12430 | -75.75546 | 3986 ft | 98 kts | 165° |
| 2026-05-06 14:58 | 36.11842 | -75.75133 | 3782 ft | 97 kts | 167° |
| 2026-05-06 14:58 | 36.11242 | -75.74772 | 3584 ft | 94 kts | 169° |
| 2026-05-06 14:59 | 36.10662 | -75.74411 | 3383 ft | 92 kts | 169° |
| 2026-05-06 14:59 | 36.10090 | -75.74040 | 3146 ft | 93 kts | 167° |
| 2026-05-06 14:59 | 36.09545 | -75.73626 | 2907 ft | 93 kts | 165° |
| 2026-05-06 14:59 | 36.08999 | -75.73187 | 2682 ft | 93 kts | 162° |
| 2026-05-06 15:00 | 36.08469 | -75.72729 | 2441 ft | 92 kts | 163° |
| 2026-05-06 15:00 | 36.07933 | -75.72313 | 2201 ft | 90 kts | 165° |
| 2026-05-06 15:00 | 36.07389 | -75.71952 | 1985 ft | 86 kts | 171° |
| 2026-05-06 15:00 | 36.06863 | -75.71612 | 1972 ft | 89 kts | 163° |
| 2026-05-06 15:01 | 36.06350 | -75.71181 | 2015 ft | 90 kts | 161° |
| 2026-05-06 15:01 | 36.05824 | -75.70754 | 2047 ft | 91 kts | 163° |
| 2026-05-06 15:01 | 36.05290 | -75.70319 | 2068 ft | 91 kts | 164° |
| 2026-05-06 15:01 | 36.04752 | -75.69916 | 2074 ft | 90 kts | 165° |
| 2026-05-06 15:02 | 36.04211 | -75.69508 | 2075 ft | 91 kts | 166° |
| 2026-05-06 15:02 | 36.03660 | -75.69131 | 2061 ft | 91 kts | 166° |
| 2026-05-06 15:02 | 36.03113 | -75.68720 | 2067 ft | 95 kts | 158° |
| 2026-05-06 15:02 | 36.02615 | -75.68132 | 2070 ft | 100 kts | 150° |
| 2026-05-06 15:03 | 36.02160 | -75.67455 | 2067 ft | 107 kts | 136° |
| 2026-05-06 15:03 | 36.01857 | -75.66566 | 1995 ft | 116 kts | 124° |
| 2026-05-06 15:03 | 36.01621 | -75.65619 | 1911 ft | 115 kts | 116° |
| 2026-05-06 15:03 | 36.01476 | -75.64642 | 1688 ft | 115 kts | 108° |
| 2026-05-06 15:04 | 36.01369 | -75.63712 | 1465 ft | 101 kts | 125° |
| 2026-05-06 15:04 | 36.00939 | -75.63214 | 1245 ft | 79 kts | 177° |
| 2026-05-06 15:04 | 36.00469 | -75.63358 | 1093 ft | 71 kts | 221° |
| 2026-05-06 15:04 | 36.00244 | -75.63950 | 1017 ft | 84 kts | 249° |
| 2026-05-06 15:05 | 36.00490 | -75.64672 | 1013 ft | 112 kts | 316° |
| 2026-05-06 15:05 | 36.01267 | -75.64967 | 973 ft | 123 kts | 342° |
| 2026-05-06 15:05 | 36.02105 | -75.64920 | 913 ft | 117 kts | 16° |
| 2026-05-06 15:05 | 36.02844 | -75.64588 | 808 ft | 112 kts | 21° |
| 2026-05-06 15:06 | 36.03565 | -75.64508 | 710 ft | 99 kts | 326° |
| 2026-05-06 15:06 | 36.03823 | -75.65143 | 620 ft | 77 kts | 271° |
| 2026-05-06 15:06 | 36.03926 | -75.65766 | 497 ft | 75 kts | 268° |
| 2026-05-06 15:06 | 36.03852 | -75.66381 | 345 ft | 70 kts | 228° |
| 2026-05-06 15:07 | 36.03457 | -75.66594 | 312 ft | 59 kts | 198° |
| 2026-05-06 15:07 | 36.03060 | -75.66732 | 250 ft | 60 kts | 195° |
| 2026-05-06 15:07 | 36.02655 | -75.66869 | 201 ft | 59 kts | 199° |
| 2026-05-06 15:07 | 36.02273 | -75.66984 | 101 ft | 53 kts | 200° |
| 2026-05-06 15:08 | 36.01930 | -75.67108 | 32 ft | 50 kts | 200° |
| 2026-05-06 15:08 | 36.01640 | -75.67201 | 16 ft | 35 kts | 195° |
| 2026-05-06 15:08 | 36.01508 | -75.67243 | 15 ft | 11 kts | 197° |
| 2026-05-06 15:08 | 36.01467 | -75.67211 | 18 ft | 6 kts | 112° |
| 2026-05-06 15:09 | 36.01466 | -75.67208 | 18 ft | 0 kts | 111° |
| 2026-05-06 15:09 | 36.01441 | -75.67183 | 18 ft | 5 kts | 185° |
| 2026-05-06 15:09 | 36.01438 | -75.67184 | 18 ft | 0 kts | 191° |